createdAt,value
2018-04-30T00:00:56.613Z,4.30
2018-04-30T00:01:59.112Z,4.25
2018-04-30T00:03:01.581Z,4.70
2018-04-30T00:04:04.045Z,4.87
2018-04-30T00:05:06.823Z,5.03
2018-04-30T00:06:10.880Z,5.00
2018-04-30T00:07:13.376Z,6.50
2018-04-30T00:08:15.848Z,6.65
2018-04-30T00:09:18.311Z,6.80
2018-04-30T00:10:21.243Z,6.53
2018-04-30T00:11:23.938Z,6.45
2018-04-30T00:12:26.436Z,7.25
2018-04-30T00:13:28.910Z,6.97
2018-04-30T00:14:32.139Z,7.25
2018-04-30T00:15:34.801Z,7.68
2018-04-30T00:16:37.321Z,7.65
2018-04-30T00:17:39.783Z,8.13
2018-04-30T00:18:42.252Z,9.25
2018-04-30T00:19:44.716Z,8.02
2018-04-30T00:20:47.363Z,8.38
2018-04-30T00:21:50.655Z,10.60
2018-04-30T00:22:53.127Z,10.48
2018-04-30T00:23:55.596Z,10.93
2018-04-30T00:24:59.584Z,10.98
2018-04-30T00:26:02.346Z,11.85
2018-04-30T00:27:04.854Z,11.30
2018-04-30T00:28:08.091Z,11.20
2018-04-30T00:29:10.563Z,8.98
2018-04-30T00:30:13.396Z,8.80
2018-04-30T00:31:16.267Z,8.35
2018-04-30T00:32:18.800Z,8.63
2018-04-30T00:33:21.256Z,8.13
2018-04-30T00:34:23.724Z,7.93
2018-04-30T00:35:27.250Z,7.90
2018-04-30T00:36:29.747Z,8.82
2018-04-30T00:37:32.235Z,8.98
2018-04-30T00:38:34.705Z,8.02
2018-04-30T00:39:37.167Z,8.13
2018-04-30T00:40:39.980Z,7.97
2018-04-30T00:41:42.476Z,7.55
2018-04-30T00:42:44.976Z,8.13
2018-04-30T00:43:47.436Z,7.75
2018-04-30T00:44:50.668Z,7.93
2018-04-30T00:45:53.324Z,7.97
2018-04-30T00:46:55.824Z,8.27
2018-04-30T00:47:58.308Z,9.23
2018-04-30T00:49:00.798Z,9.20
2018-04-30T00:50:04.308Z,9.48
2018-04-30T00:51:06.977Z,9.65
2018-04-30T00:52:09.480Z,11.85
2018-04-30T00:53:11.972Z,13.10
2018-04-30T00:54:20.307Z,11.98
2018-04-30T00:55:23.388Z,12.50
2018-04-30T00:56:26.164Z,12.30
2018-04-30T00:57:28.669Z,12.02
2018-04-30T00:58:31.165Z,12.65
2018-04-30T00:59:34.404Z,12.50
2018-04-30T01:00:37.350Z,12.20
2018-04-30T01:01:39.856Z,14.02
2018-04-30T01:02:42.333Z,13.45
2018-04-30T01:03:46.336Z,12.70
2018-04-30T01:04:48.808Z,13.40
2018-04-30T01:05:52.236Z,11.75
2018-04-30T01:06:54.732Z,12.13
2018-04-30T01:07:57.203Z,11.77
2018-04-30T01:08:59.692Z,11.63
2018-04-30T01:10:03.211Z,12.35
2018-04-30T01:11:05.982Z,12.52
2018-04-30T01:12:08.497Z,11.77
2018-04-30T01:13:10.972Z,12.45
2018-04-30T01:14:13.467Z,11.88
2018-04-30T01:15:16.283Z,12.18
2018-04-30T01:16:19.023Z,11.82
2018-04-30T01:17:21.532Z,10.82
2018-04-30T01:18:24.003Z,11.73
2018-04-30T01:19:26.504Z,11.75
2018-04-30T01:20:30.723Z,10.63
2018-04-30T01:21:33.228Z,10.98
2018-04-30T01:22:35.745Z,11.23
2018-04-30T01:23:38.213Z,10.65
2018-04-30T01:24:40.715Z,10.98
2018-04-30T01:25:43.371Z,10.80
2018-04-30T01:26:45.872Z,11.00
2018-04-30T01:27:48.349Z,11.23
2018-04-30T01:28:50.816Z,10.23
2018-04-30T01:29:54.092Z,11.70
2018-04-30T01:30:57.615Z,10.55
2018-04-30T01:32:00.117Z,11.52
2018-04-30T01:33:02.584Z,12.00
2018-04-30T01:34:05.064Z,11.50
2018-04-30T01:35:07.985Z,11.35
2018-04-30T01:36:10.755Z,11.65
2018-04-30T01:37:13.255Z,12.45
2018-04-30T01:38:15.724Z,12.13
2018-04-30T01:39:18.196Z,11.82
2018-04-30T01:40:20.920Z,12.05
2018-04-30T01:41:23.526Z,12.13
2018-04-30T01:42:25.991Z,12.73
2018-04-30T01:43:28.464Z,12.55
2018-04-30T01:44:30.956Z,12.50
2018-04-30T01:45:34.508Z,13.07
2018-04-30T01:46:36.996Z,12.27
2018-04-30T01:47:39.465Z,14.13
2018-04-30T01:48:42.719Z,14.77
2018-04-30T01:49:45.188Z,14.07
2018-04-30T01:50:47.960Z,13.62
2018-04-30T01:51:50.447Z,13.23
2018-04-30T01:52:53.688Z,13.25
2018-04-30T01:53:56.164Z,13.38
2018-04-30T01:54:58.659Z,13.82
2018-04-30T01:56:02.184Z,13.38
2018-04-30T01:57:04.684Z,12.30
2018-04-30T01:58:07.152Z,11.90
2018-04-30T01:59:09.635Z,12.13
2018-04-30T02:00:12.655Z,11.95
2018-04-30T02:01:16.349Z,12.27
2018-04-30T02:02:18.853Z,11.35
2018-04-30T02:03:21.324Z,12.13
2018-04-30T02:04:23.828Z,11.63
2018-04-30T02:05:27.435Z,11.00
2018-04-30T02:06:29.980Z,11.90
2018-04-30T02:07:33.215Z,11.60
2018-04-30T02:08:35.692Z,11.63
2018-04-30T02:09:38.163Z,11.25
2018-04-30T02:10:40.882Z,11.35
2018-04-30T02:11:43.401Z,11.65
2018-04-30T02:12:45.871Z,10.90
2018-04-30T02:13:48.343Z,11.93
2018-04-30T02:14:51.582Z,11.23
2018-04-30T02:15:54.343Z,11.27
2018-04-30T02:16:56.877Z,11.30
2018-04-30T02:18:00.116Z,11.12
2018-04-30T02:19:02.585Z,10.95
2018-04-30T02:20:05.312Z,10.95
2018-04-30T02:21:08.912Z,10.50
2018-04-30T02:22:11.431Z,11.38
2018-04-30T02:23:15.242Z,11.25
2018-04-30T02:24:17.738Z,11.18
2018-04-30T02:25:20.603Z,11.20
2018-04-30T02:26:23.814Z,11.07
2018-04-30T02:27:26.308Z,11.23
2018-04-30T02:28:28.779Z,11.70
2018-04-30T02:29:32.023Z,11.98
2018-04-30T02:30:34.546Z,11.32
2018-04-30T02:31:37.032Z,11.40
2018-04-30T02:32:39.518Z,11.15
2018-04-30T02:33:42.011Z,11.45
2018-04-30T02:34:44.471Z,11.50
2018-04-30T02:35:47.807Z,11.68
2018-04-30T02:36:50.316Z,11.27
2018-04-30T02:37:52.824Z,11.50
2018-04-30T02:38:56.065Z,11.82
2018-04-30T02:39:58.540Z,10.98
2018-04-30T02:41:01.363Z,11.70
2018-04-30T02:42:03.904Z,11.43
2018-04-30T02:43:07.199Z,11.55
2018-04-30T02:44:09.667Z,11.20
2018-04-30T02:45:12.390Z,11.30
2018-04-30T02:46:17.202Z,10.77
2018-04-30T02:47:19.696Z,11.70
2018-04-30T02:48:22.954Z,10.50
2018-04-30T02:49:25.424Z,11.02
2018-04-30T02:50:28.246Z,11.00
2018-04-30T02:51:30.761Z,10.98
2018-04-30T02:52:33.236Z,11.32
2018-04-30T02:53:36.509Z,10.80
2018-04-30T02:54:38.985Z,10.30
2018-04-30T02:55:42.509Z,10.40
2018-04-30T02:56:45.020Z,10.73
2018-04-30T02:57:47.516Z,10.13
2018-04-30T02:58:50.771Z,11.43
2018-04-30T02:59:53.244Z,11.00
2018-04-30T03:00:55.956Z,10.63
2018-04-30T03:01:58.462Z,10.52
2018-04-30T03:03:00.929Z,10.23
2018-04-30T03:04:03.422Z,10.35
2018-04-30T03:05:06.122Z,9.90
2018-04-30T03:06:08.994Z,10.30
2018-04-30T03:07:11.485Z,9.75
2018-04-30T03:08:14.318Z,9.85
2018-04-30T03:09:17.580Z,10.50
2018-04-30T03:10:21.001Z,9.38
2018-04-30T03:11:23.509Z,10.10
2018-04-30T03:12:26.019Z,9.95
2018-04-30T03:13:29.256Z,10.35
2018-04-30T03:14:31.740Z,9.57
2018-04-30T03:15:34.497Z,9.68
2018-04-30T03:16:38.491Z,10.95
2018-04-30T03:17:40.969Z,10.00
2018-04-30T03:18:43.732Z,9.85
2018-04-30T03:19:46.237Z,10.52
2018-04-30T03:20:49.796Z,10.20
2018-04-30T03:21:53.052Z,10.88
2018-04-30T03:22:55.524Z,10.27
2018-04-30T03:23:57.996Z,11.10
2018-04-30T03:25:00.484Z,10.68
2018-04-30T03:26:03.903Z,10.07
2018-04-30T03:27:06.404Z,10.38
2018-04-30T03:28:08.871Z,10.52
2018-04-30T03:29:11.360Z,10.32
2018-04-30T03:30:14.422Z,10.85
2018-04-30T03:31:17.968Z,10.48
2018-04-30T03:32:20.471Z,10.43
2018-04-30T03:33:22.941Z,10.43
2018-04-30T03:34:25.459Z,11.32
2018-04-30T03:35:29.285Z,9.98
2018-04-30T03:36:31.780Z,10.82
2018-04-30T03:37:34.251Z,11.15
2018-04-30T03:38:37.488Z,10.90
2018-04-30T03:39:39.965Z,10.88
2018-04-30T03:40:42.704Z,11.68
2018-04-30T03:41:45.211Z,11.38
2018-04-30T03:42:47.676Z,11.10
2018-04-30T03:43:50.143Z,11.68
2018-04-30T03:44:52.615Z,10.90
2018-04-30T03:45:56.354Z,11.45
2018-04-30T03:46:58.852Z,10.93
2018-04-30T03:48:01.341Z,11.70
2018-04-30T03:49:03.813Z,12.15
2018-04-30T03:50:07.339Z,12.55
2018-04-30T03:51:10.111Z,13.00
2018-04-30T03:52:12.600Z,12.00
2018-04-30T03:53:15.448Z,12.02
2018-04-30T03:54:17.967Z,12.43
2018-04-30T03:55:20.786Z,12.30
2018-04-30T03:56:23.325Z,12.25
2018-04-30T03:57:26.560Z,12.30
2018-04-30T03:58:29.032Z,12.02
2018-04-30T03:59:31.500Z,11.90
2018-04-30T04:00:46.060Z,12.23
2018-04-30T04:02:01.204Z,11.45
2018-04-30T04:03:16.632Z,11.35
2018-04-30T04:04:31.052Z,11.43
2018-04-30T04:05:46.396Z,11.50
2018-04-30T04:06:52.728Z,11.82
2018-04-30T04:07:55.205Z,11.30
2018-04-30T04:08:57.677Z,11.32
2018-04-30T04:10:00.143Z,12.32
2018-04-30T04:11:02.973Z,11.30
2018-04-30T04:12:05.483Z,11.40
2018-04-30T04:13:07.956Z,11.18
2018-04-30T04:14:10.428Z,11.85
2018-04-30T04:15:13.290Z,10.43
2018-04-30T04:16:16.771Z,10.45
2018-04-30T04:17:20.044Z,10.02
2018-04-30T04:18:22.636Z,8.50
2018-04-30T04:19:25.120Z,3.70
2018-04-30T04:20:28.734Z,3.30
2018-04-30T04:21:31.224Z,2.92
2018-04-30T04:22:33.704Z,2.87
2018-04-30T04:23:36.184Z,2.72
2018-04-30T04:24:38.692Z,2.20
2018-04-30T04:25:41.362Z,2.60
2018-04-30T04:26:43.859Z,1.85
2018-04-30T04:27:46.352Z,2.62
2018-04-30T04:28:48.855Z,2.75
2018-04-30T04:29:51.336Z,2.08
2018-04-30T04:30:54.093Z,1.70
2018-04-30T04:31:56.595Z,1.75
2018-04-30T04:32:59.395Z,1.50
2018-04-30T04:34:01.865Z,1.65
2018-04-30T04:35:04.564Z,2.85
2018-04-30T04:36:07.252Z,2.28
2018-04-30T04:37:09.748Z,2.60
2018-04-30T04:38:12.237Z,1.73
2018-04-30T04:39:15.503Z,2.00
2018-04-30T04:40:18.318Z,1.65
2018-04-30T04:41:21.095Z,2.37
2018-04-30T04:42:23.599Z,1.80
2018-04-30T04:43:26.084Z,2.37
2018-04-30T04:44:28.548Z,1.40
2018-04-30T04:45:31.356Z,1.37
2018-04-30T04:46:33.866Z,1.85
2018-04-30T04:47:36.328Z,1.55
2018-04-30T04:48:38.808Z,1.50
2018-04-30T04:49:41.277Z,1.20
2018-04-30T04:50:44.829Z,1.80
2018-04-30T04:51:47.316Z,1.85
2018-04-30T04:52:49.796Z,1.50
2018-04-30T04:53:53.060Z,1.40
2018-04-30T04:54:55.523Z,1.20
2018-04-30T04:55:58.416Z,1.67
2018-04-30T04:57:00.918Z,1.40
2018-04-30T04:58:03.379Z,1.60
2018-04-30T04:59:05.867Z,1.70
2018-04-30T05:00:08.558Z,2.05
2018-04-30T05:01:11.289Z,1.45
2018-04-30T05:02:13.782Z,1.70
2018-04-30T05:03:16.256Z,1.48
2018-04-30T05:04:18.755Z,1.50
2018-04-30T05:05:22.223Z,1.35
2018-04-30T05:06:25.759Z,1.65
2018-04-30T05:07:28.243Z,1.50
2018-04-30T05:08:30.768Z,1.48
2018-04-30T05:09:34.032Z,2.87
2018-04-30T05:10:36.846Z,1.75
2018-04-30T05:11:39.359Z,1.33
2018-04-30T05:12:41.835Z,1.55
2018-04-30T05:13:44.324Z,1.50
2018-04-30T05:14:47.580Z,1.65
2018-04-30T05:15:50.293Z,1.67
2018-04-30T05:16:52.780Z,1.75
2018-04-30T05:17:55.247Z,1.48
2018-04-30T05:18:57.721Z,1.30
2018-04-30T05:20:00.216Z,1.60
2018-04-30T05:21:03.741Z,1.73
2018-04-30T05:22:06.270Z,2.40
2018-04-30T05:23:08.737Z,2.55
2018-04-30T05:24:11.212Z,3.12
2018-04-30T05:25:14.826Z,2.60
2018-04-30T05:26:17.659Z,2.65
2018-04-30T05:27:20.916Z,2.50
2018-04-30T05:28:23.391Z,2.03
2018-04-30T05:29:25.895Z,1.90
2018-04-30T05:30:28.581Z,1.98
2018-04-30T05:31:31.892Z,1.52
2018-04-30T05:32:34.367Z,1.77
2018-04-30T05:33:36.866Z,1.75
2018-04-30T05:34:40.111Z,1.83
2018-04-30T05:35:42.889Z,1.50
2018-04-30T05:36:45.368Z,1.50
2018-04-30T05:37:47.835Z,1.50
2018-04-30T05:38:50.303Z,1.20
2018-04-30T05:39:52.772Z,1.20
2018-04-30T05:40:56.340Z,1.40
2018-04-30T05:41:59.603Z,1.67
2018-04-30T05:43:02.137Z,1.40
2018-04-30T05:44:04.599Z,1.27
2018-04-30T05:45:07.072Z,2.42
2018-04-30T05:46:09.845Z,1.98
2018-04-30T05:47:12.343Z,1.75
2018-04-30T05:48:14.811Z,1.90
2018-04-30T05:49:17.279Z,2.05
2018-04-30T05:50:20.009Z,2.10
2018-04-30T05:51:23.510Z,2.12
2018-04-30T05:52:26.005Z,2.35
2018-04-30T05:53:28.469Z,2.08
2018-04-30T05:54:30.937Z,2.30
2018-04-30T05:55:33.766Z,2.28
2018-04-30T05:56:36.296Z,1.95
2018-04-30T05:57:39.544Z,1.90
2018-04-30T05:58:42.016Z,2.00
2018-04-30T05:59:44.480Z,2.17
2018-04-30T06:00:47.317Z,2.00
2018-04-30T06:01:49.840Z,2.00
2018-04-30T06:02:53.075Z,1.45
2018-04-30T06:03:55.539Z,1.90
2018-04-30T06:04:58.012Z,1.58
2018-04-30T06:06:00.705Z,1.60
2018-04-30T06:07:03.972Z,1.52
2018-04-30T06:08:06.432Z,1.27
2018-04-30T06:09:08.899Z,1.30
2018-04-30T06:10:11.645Z,1.70
2018-04-30T06:11:15.233Z,1.67
2018-04-30T06:12:17.758Z,1.20
2018-04-30T06:13:20.228Z,1.00
2018-04-30T06:14:22.692Z,1.10
2018-04-30T06:15:27.258Z,1.30
2018-04-30T06:16:29.735Z,1.00
2018-04-30T06:17:32.288Z,1.00
2018-04-30T06:18:34.711Z,1.20
2018-04-30T06:19:37.940Z,1.10
2018-04-30T06:20:40.622Z,1.30
2018-04-30T06:21:44.616Z,1.25
2018-04-30T06:22:47.103Z,1.05
2018-04-30T06:23:49.567Z,0.90
2018-04-30T06:24:52.036Z,1.17
2018-04-30T06:25:54.851Z,1.15
2018-04-30T06:26:57.439Z,1.00
2018-04-30T06:27:59.859Z,1.10
2018-04-30T06:29:03.096Z,1.12
2018-04-30T06:30:06.450Z,1.60
2018-04-30T06:31:09.118Z,1.30
2018-04-30T06:32:11.619Z,1.50
2018-04-30T06:33:14.107Z,1.37
2018-04-30T06:34:16.575Z,1.50
2018-04-30T06:35:20.047Z,1.17
2018-04-30T06:36:24.410Z,1.10
2018-04-30T06:37:26.911Z,1.10
2018-04-30T06:38:29.411Z,1.20
2018-04-30T06:39:32.643Z,1.40
2018-04-30T06:40:35.328Z,1.08
2018-04-30T06:41:37.831Z,1.30
2018-04-30T06:42:41.060Z,1.45
2018-04-30T06:43:43.544Z,1.50
2018-04-30T06:44:46.008Z,1.25
2018-04-30T06:45:48.739Z,1.20
2018-04-30T06:46:51.236Z,1.05
2018-04-30T06:47:53.703Z,1.00
2018-04-30T06:48:56.204Z,1.30
2018-04-30T06:49:59.436Z,1.15
2018-04-30T06:51:02.202Z,1.12
2018-04-30T06:52:04.692Z,1.33
2018-04-30T06:53:07.978Z,1.20
2018-04-30T06:54:10.475Z,1.40
2018-04-30T06:55:14.712Z,1.40
2018-04-30T06:56:17.516Z,1.15
2018-04-30T06:57:20.784Z,1.10
2018-04-30T06:58:23.263Z,1.20
2018-04-30T06:59:25.797Z,1.20
2018-04-30T07:00:28.598Z,1.25
2018-04-30T07:01:31.864Z,1.45
2018-04-30T07:02:34.335Z,1.20
2018-04-30T07:03:37.400Z,0.90
2018-04-30T07:04:39.887Z,1.20
2018-04-30T07:05:42.730Z,1.05
2018-04-30T07:06:45.235Z,1.10
2018-04-30T07:07:47.699Z,1.05
2018-04-30T07:08:50.167Z,1.05
2018-04-30T07:09:52.656Z,0.93
2018-04-30T07:10:56.137Z,1.37
2018-04-30T07:11:58.627Z,1.00
2018-04-30T07:13:01.101Z,0.90
2018-04-30T07:14:03.600Z,1.20
2018-04-30T07:15:06.337Z,1.00
2018-04-30T07:16:09.518Z,1.30
2018-04-30T07:17:12.044Z,1.12
2018-04-30T07:18:14.516Z,1.05
2018-04-30T07:19:17.752Z,0.77
2018-04-30T07:20:20.511Z,1.08
2018-04-30T07:21:23.174Z,0.98
2018-04-30T07:22:25.720Z,1.10
2018-04-30T07:23:28.259Z,1.00
2018-04-30T07:24:30.727Z,1.15
2018-04-30T07:25:33.541Z,1.10
2018-04-30T07:26:36.065Z,1.10
2018-04-30T07:27:38.623Z,1.00
2018-04-30T07:28:41.785Z,1.20
2018-04-30T07:29:44.400Z,1.48
2018-04-30T07:30:47.959Z,1.30
2018-04-30T07:31:51.219Z,0.98
2018-04-30T07:32:53.688Z,1.20
2018-04-30T07:33:56.183Z,1.30
2018-04-30T07:34:58.714Z,1.10
2018-04-30T07:36:01.507Z,1.10
2018-04-30T07:37:03.992Z,1.20
2018-04-30T07:38:07.234Z,1.15
2018-04-30T07:39:09.750Z,1.45
2018-04-30T07:40:12.441Z,1.12
2018-04-30T07:41:15.317Z,1.17
2018-04-30T07:42:17.823Z,1.00
2018-04-30T07:43:20.287Z,1.10
2018-04-30T07:44:22.760Z,1.20
2018-04-30T07:45:25.581Z,1.08
2018-04-30T07:46:28.238Z,0.80
2018-04-30T07:47:30.724Z,0.82
2018-04-30T07:48:34.040Z,0.80
2018-04-30T07:49:36.509Z,1.00
2018-04-30T07:50:39.336Z,0.90
2018-04-30T07:51:41.859Z,1.30
2018-04-30T07:52:44.324Z,1.08
2018-04-30T07:53:46.798Z,1.10
2018-04-30T07:54:50.031Z,1.30
2018-04-30T07:55:52.783Z,1.70
2018-04-30T07:56:55.299Z,1.10
2018-04-30T07:57:57.792Z,1.12
2018-04-30T07:59:01.221Z,1.10
2018-04-30T08:00:03.971Z,0.98
2018-04-30T08:01:06.845Z,0.88
2018-04-30T08:02:09.375Z,0.90
2018-04-30T08:03:12.616Z,1.00
2018-04-30T08:04:15.084Z,1.00
2018-04-30T08:05:17.828Z,0.90
2018-04-30T08:06:20.667Z,1.23
2018-04-30T08:07:23.947Z,1.10
2018-04-30T08:08:27.921Z,1.00
2018-04-30T08:09:30.415Z,1.20
2018-04-30T08:10:34.013Z,1.10
2018-04-30T08:11:37.261Z,1.00
2018-04-30T08:12:39.744Z,1.08
2018-04-30T08:13:42.233Z,1.17
2018-04-30T08:14:45.488Z,1.33
2018-04-30T08:15:48.219Z,1.27
2018-04-30T08:16:50.775Z,1.10
2018-04-30T08:17:53.260Z,1.40
2018-04-30T08:18:55.723Z,1.20
2018-04-30T08:19:58.192Z,1.12
2018-04-30T08:21:00.951Z,1.60
2018-04-30T08:22:03.446Z,1.33
2018-04-30T08:23:05.923Z,1.37
2018-04-30T08:24:08.392Z,1.42
2018-04-30T08:25:11.201Z,1.30
2018-04-30T08:26:14.075Z,1.10
2018-04-30T08:27:16.584Z,1.10
2018-04-30T08:28:19.208Z,1.17
2018-04-30T08:29:21.676Z,0.98
2018-04-30T08:30:24.445Z,1.00
2018-04-30T08:31:27.265Z,1.37
2018-04-30T08:32:30.517Z,1.08
2018-04-30T08:33:33.000Z,1.40
2018-04-30T08:34:35.475Z,1.62
2018-04-30T08:35:38.816Z,2.03
2018-04-30T08:36:41.482Z,1.70
2018-04-30T08:37:43.880Z,1.23
2018-04-30T08:38:47.512Z,1.05
2018-04-30T08:39:50.763Z,1.02
2018-04-30T08:40:53.500Z,1.02
2018-04-30T08:41:56.023Z,1.02
2018-04-30T08:42:59.404Z,1.20
2018-04-30T08:44:02.731Z,0.90
2018-04-30T08:45:05.595Z,1.05
2018-04-30T08:46:09.089Z,1.12
2018-04-30T08:47:11.587Z,1.00
2018-04-30T08:48:14.055Z,0.90
2018-04-30T08:49:16.563Z,1.00
2018-04-30T08:50:19.981Z,1.10
2018-04-30T08:51:22.571Z,0.80
2018-04-30T08:52:25.081Z,0.98
2018-04-30T08:53:28.311Z,1.00
2018-04-30T08:54:30.811Z,0.95
2018-04-30T08:55:33.620Z,0.98
2018-04-30T08:56:36.124Z,1.00
2018-04-30T08:57:38.595Z,1.30
2018-04-30T08:58:41.068Z,0.90
2018-04-30T08:59:43.623Z,1.00
2018-04-30T09:00:47.170Z,2.55
2018-04-30T09:01:49.657Z,1.40
2018-04-30T09:02:52.132Z,0.90
2018-04-30T09:03:54.638Z,1.00
2018-04-30T09:04:57.898Z,1.23
2018-04-30T09:06:00.721Z,1.17
2018-04-30T09:07:03.285Z,0.95
2018-04-30T09:08:05.715Z,2.12
2018-04-30T09:09:08.943Z,1.30
2018-04-30T09:10:11.805Z,1.20
2018-04-30T09:11:14.679Z,1.10
2018-04-30T09:12:17.184Z,1.23
2018-04-30T09:13:19.674Z,0.98
2018-04-30T09:14:22.140Z,1.00
2018-04-30T09:15:25.699Z,1.00
2018-04-30T09:16:28.463Z,1.00
2018-04-30T09:17:30.929Z,1.15
2018-04-30T09:18:33.399Z,0.90
2018-04-30T09:19:35.863Z,0.60
2018-04-30T09:20:38.701Z,1.00
2018-04-30T09:21:41.208Z,1.00
2018-04-30T09:22:43.672Z,1.23
2018-04-30T09:23:46.188Z,0.90
2018-04-30T09:24:48.655Z,1.73
2018-04-30T09:25:51.533Z,0.80
2018-04-30T09:26:54.036Z,0.90
2018-04-30T09:27:56.499Z,1.02
2018-04-30T09:28:58.961Z,1.02
2018-04-30T09:30:01.448Z,0.98
2018-04-30T09:31:04.267Z,1.25
2018-04-30T09:32:06.758Z,0.90
2018-04-30T09:33:09.221Z,1.17
2018-04-30T09:34:11.695Z,1.23
2018-04-30T09:35:14.461Z,1.30
2018-04-30T09:36:17.303Z,1.30
2018-04-30T09:37:19.807Z,2.50
2018-04-30T09:38:22.273Z,1.42
2018-04-30T09:39:24.758Z,1.37
2018-04-30T09:40:28.290Z,1.60
2018-04-30T09:41:30.807Z,5.40
2018-04-30T09:42:33.267Z,1.30
2018-04-30T09:43:35.799Z,2.20
2018-04-30T09:44:38.323Z,1.40
2018-04-30T09:45:40.948Z,2.25
2018-04-30T09:46:44.229Z,1.10
2018-04-30T09:47:46.711Z,1.90
2018-04-30T09:48:49.180Z,1.33
2018-04-30T09:49:51.671Z,1.20
2018-04-30T09:50:55.218Z,0.90
2018-04-30T09:51:57.981Z,0.82
2018-04-30T09:53:00.449Z,0.98
2018-04-30T09:54:02.923Z,1.10
2018-04-30T09:55:05.703Z,1.55
2018-04-30T09:56:09.896Z,0.77
2018-04-30T09:57:12.405Z,1.55
2018-04-30T09:58:15.644Z,1.10
2018-04-30T09:59:18.108Z,1.00
2018-04-30T10:00:20.881Z,1.20
2018-04-30T10:01:23.519Z,1.10
2018-04-30T10:02:26.044Z,1.95
2018-04-30T10:03:29.272Z,1.20
2018-04-30T10:04:31.736Z,1.00
2018-04-30T10:05:34.492Z,1.40
2018-04-30T10:06:36.975Z,1.58
2018-04-30T10:07:39.461Z,1.00
2018-04-30T10:08:41.948Z,0.90
2018-04-30T10:09:45.191Z,1.02
2018-04-30T10:10:48.045Z,0.80
2018-04-30T10:11:50.552Z,0.80
2018-04-30T10:12:53.080Z,0.80
2018-04-30T10:13:55.551Z,0.80
2018-04-30T10:14:58.031Z,1.27
2018-04-30T10:16:00.875Z,1.20
2018-04-30T10:17:03.360Z,1.00
2018-04-30T10:18:05.879Z,0.85
2018-04-30T10:19:09.192Z,0.85
2018-04-30T10:20:12.579Z,0.95
2018-04-30T10:21:15.756Z,1.30
2018-04-30T10:22:18.256Z,1.12
2018-04-30T10:23:20.744Z,0.98
2018-04-30T10:24:23.993Z,1.35
2018-04-30T10:25:26.636Z,1.00
2018-04-30T10:26:29.165Z,0.90
2018-04-30T10:27:32.461Z,1.20
2018-04-30T10:28:35.734Z,1.00
2018-04-30T10:29:38.241Z,0.80
2018-04-30T10:30:41.315Z,1.20
2018-04-30T10:31:43.839Z,1.02
2018-04-30T10:32:46.304Z,1.10
2018-04-30T10:33:49.615Z,2.33
2018-04-30T10:34:52.854Z,2.47
2018-04-30T10:35:55.581Z,6.12
2018-04-30T10:36:58.082Z,1.98
2018-04-30T10:38:00.566Z,1.35
2018-04-30T10:39:03.040Z,1.60
2018-04-30T10:40:06.461Z,1.37
2018-04-30T10:41:09.134Z,1.33
2018-04-30T10:42:11.632Z,1.50
2018-04-30T10:43:14.099Z,1.23
2018-04-30T10:44:16.699Z,2.17
2018-04-30T10:45:20.214Z,1.33
2018-04-30T10:46:23.036Z,2.87
2018-04-30T10:47:25.509Z,1.12
2018-04-30T10:48:28.035Z,1.23
2018-04-30T10:49:30.525Z,1.17
2018-04-30T10:50:33.908Z,1.02
2018-04-30T10:51:36.441Z,1.12
2018-04-30T10:52:39.640Z,1.08
2018-04-30T10:53:42.095Z,1.10
2018-04-30T10:54:45.400Z,1.70
2018-04-30T10:55:48.240Z,1.05
2018-04-30T10:56:50.868Z,1.00
2018-04-30T10:57:54.108Z,0.95
2018-04-30T10:58:56.653Z,1.00
2018-04-30T10:59:59.138Z,1.02
2018-04-30T11:01:02.099Z,1.25
2018-04-30T11:02:04.596Z,1.60
2018-04-30T11:03:07.132Z,1.42
2018-04-30T11:04:09.603Z,1.55
2018-04-30T11:05:12.362Z,1.40
2018-04-30T11:06:15.177Z,1.50
2018-04-30T11:07:18.427Z,1.50
2018-04-30T11:08:20.996Z,1.50
2018-04-30T11:09:23.506Z,1.60
2018-04-30T11:10:26.732Z,1.15
2018-04-30T11:11:29.546Z,1.10
2018-04-30T11:12:32.112Z,1.10
2018-04-30T11:13:35.272Z,1.30
2018-04-30T11:14:37.740Z,1.10
2018-04-30T11:15:40.591Z,0.75
2018-04-30T11:16:43.107Z,1.17
2018-04-30T11:17:45.579Z,1.05
2018-04-30T11:18:48.851Z,1.05
2018-04-30T11:19:51.321Z,1.05
2018-04-30T11:20:53.931Z,0.80
2018-04-30T11:21:56.407Z,1.33
2018-04-30T11:22:58.875Z,1.08
2018-04-30T11:24:01.341Z,1.17
2018-04-30T11:25:04.102Z,0.85
2018-04-30T11:26:07.486Z,1.05
2018-04-30T11:27:10.046Z,0.90
2018-04-30T11:28:12.515Z,1.00
2018-04-30T11:29:15.008Z,1.10
2018-04-30T11:30:17.850Z,0.80
2018-04-30T11:31:20.766Z,0.90
2018-04-30T11:32:23.249Z,0.70
2018-04-30T11:33:26.484Z,0.93
2018-04-30T11:34:28.960Z,0.88
2018-04-30T11:35:31.810Z,1.12
2018-04-30T11:36:35.871Z,0.70
2018-04-30T11:37:39.127Z,0.88
2018-04-30T11:38:41.592Z,0.70
2018-04-30T11:39:44.092Z,0.80
2018-04-30T11:40:47.612Z,0.60
2018-04-30T11:41:50.155Z,0.85
2018-04-30T11:42:52.636Z,0.80
2018-04-30T11:43:55.123Z,0.70
2018-04-30T11:44:57.600Z,0.70
2018-04-30T11:46:01.061Z,0.88
2018-04-30T11:47:03.671Z,0.75
2018-04-30T11:48:06.836Z,0.75
2018-04-30T11:49:09.372Z,0.60
2018-04-30T11:50:12.555Z,0.60
2018-04-30T11:51:16.247Z,0.85
2018-04-30T11:52:18.765Z,0.77
2018-04-30T11:53:21.248Z,0.60
2018-04-30T11:54:24.536Z,1.00
2018-04-30T11:55:28.159Z,0.70
2018-04-30T11:56:30.677Z,0.60
2018-04-30T11:57:34.212Z,0.60
2018-04-30T11:58:36.692Z,0.88
2018-04-30T11:59:39.163Z,0.62
2018-04-30T12:00:42.112Z,0.60
2018-04-30T12:01:44.620Z,0.60
2018-04-30T12:02:47.130Z,0.70
2018-04-30T12:03:49.621Z,1.20
2018-04-30T12:04:52.130Z,0.70
2018-04-30T12:05:55.706Z,0.60
2018-04-30T12:06:58.967Z,0.70
2018-04-30T12:08:01.465Z,0.55
2018-04-30T12:09:03.934Z,0.50
2018-04-30T12:10:09.205Z,0.88
2018-04-30T12:11:12.079Z,0.68
2018-04-30T12:12:15.400Z,0.60
2018-04-30T12:13:17.893Z,0.90
2018-04-30T12:14:21.185Z,1.00
2018-04-30T12:15:24.906Z,0.90
2018-04-30T12:16:28.251Z,1.00
2018-04-30T12:17:30.712Z,0.65
2018-04-30T12:18:33.231Z,0.65
2018-04-30T12:19:35.712Z,0.50
2018-04-30T12:20:38.498Z,0.50
2018-04-30T12:21:40.983Z,0.62
2018-04-30T12:22:44.219Z,0.60
2018-04-30T12:23:46.763Z,0.47
2018-04-30T12:24:49.243Z,0.82
2018-04-30T12:25:51.908Z,0.85
2018-04-30T12:26:54.421Z,1.10
2018-04-30T12:27:57.668Z,0.47
2018-04-30T12:29:00.172Z,0.45
2018-04-30T12:30:02.886Z,0.52
2018-04-30T12:31:05.760Z,0.30
2018-04-30T12:32:09.145Z,0.50
2018-04-30T12:33:11.724Z,0.50
2018-04-30T12:34:14.215Z,0.50
2018-04-30T12:35:17.051Z,0.60
2018-04-30T12:36:20.657Z,0.60
2018-04-30T12:37:23.151Z,0.50
2018-04-30T12:38:25.635Z,0.32
2018-04-30T12:39:28.900Z,0.55
2018-04-30T12:40:31.722Z,0.40
2018-04-30T12:41:34.222Z,0.88
2018-04-30T12:42:36.760Z,0.70
2018-04-30T12:43:39.283Z,0.73
2018-04-30T12:44:41.773Z,0.80
2018-04-30T12:45:44.506Z,0.50
2018-04-30T12:46:47.769Z,0.50
2018-04-30T12:47:50.324Z,0.65
2018-04-30T12:48:52.843Z,0.40
2018-04-30T12:49:56.136Z,0.60
2018-04-30T12:50:59.031Z,0.70
2018-04-30T12:52:02.135Z,0.60
2018-04-30T12:53:04.612Z,0.50
2018-04-30T12:54:07.091Z,0.50
2018-04-30T12:55:10.731Z,0.65
2018-04-30T12:56:14.425Z,0.70
2018-04-30T12:57:16.962Z,0.50
2018-04-30T12:58:19.521Z,0.35
2018-04-30T12:59:22.779Z,0.40
2018-04-30T13:00:25.612Z,0.60
2018-04-30T13:01:28.246Z,0.82
2018-04-30T13:02:31.563Z,1.05
2018-04-30T13:03:34.764Z,0.90
2018-04-30T13:04:37.239Z,0.70
2018-04-30T13:05:39.980Z,0.70
2018-04-30T13:06:42.484Z,0.62
2018-04-30T13:07:44.964Z,0.50
2018-04-30T13:08:47.440Z,0.50
2018-04-30T13:09:50.683Z,0.57
2018-04-30T13:10:53.430Z,0.95
2018-04-30T13:11:55.948Z,0.60
2018-04-30T13:12:59.204Z,0.52
2018-04-30T13:14:01.688Z,0.37
2018-04-30T13:15:04.430Z,0.60
2018-04-30T13:16:08.310Z,0.60
2018-04-30T13:17:10.835Z,0.40
2018-04-30T13:18:13.300Z,0.50
2018-04-30T13:19:17.297Z,0.43
2018-04-30T13:20:21.184Z,0.50
2018-04-30T13:21:23.751Z,0.95
2018-04-30T13:22:26.227Z,0.75
2018-04-30T13:23:28.703Z,1.00
2018-04-30T13:24:31.955Z,0.90
2018-04-30T13:25:34.789Z,1.08
2018-04-30T13:26:37.308Z,1.27
2018-04-30T13:27:40.583Z,1.52
2018-04-30T13:28:43.058Z,1.92
2018-04-30T13:29:45.532Z,1.20
2018-04-30T13:30:49.414Z,1.25
2018-04-30T13:31:52.703Z,0.88
2018-04-30T13:32:55.172Z,0.70
2018-04-30T13:33:57.679Z,0.70
2018-04-30T13:35:00.151Z,0.45
2018-04-30T13:36:03.024Z,0.50
2018-04-30T13:37:05.584Z,0.50
2018-04-30T13:38:08.119Z,1.65
2018-04-30T13:39:11.348Z,0.90
2018-04-30T13:40:14.099Z,0.60
2018-04-30T13:41:17.385Z,0.43
2018-04-30T13:42:19.926Z,0.95
2018-04-30T13:43:23.159Z,1.08
2018-04-30T13:44:25.709Z,1.50
2018-04-30T13:45:29.372Z,0.62
2018-04-30T13:46:31.860Z,1.40
2018-04-30T13:47:34.354Z,0.60
2018-04-30T13:48:36.827Z,0.32
2018-04-30T13:49:39.316Z,0.57
2018-04-30T13:50:42.153Z,1.20